createdAt,value
2023-03-29T00:03:46.255Z,101022.42
2023-03-29T00:08:45.607Z,101021.86
2023-03-29T00:13:45.702Z,101030.89
2023-03-29T00:18:45.676Z,101029.78
2023-03-29T00:23:45.637Z,101029.16
2023-03-29T00:28:46.063Z,101033.06
2023-03-29T00:33:46.104Z,101025.12000000001
2023-03-29T00:38:45.745Z,101033.78
2023-03-29T00:43:53.262Z,101033.73
2023-03-29T00:48:45.747Z,101025.95999999999
2023-03-29T00:53:48.517Z,101031.55
2023-03-29T00:58:51.061Z,101032.54
2023-03-29T01:03:53.325Z,101031.54
2023-03-29T01:04:24.723Z,101031.31
2023-03-29T01:08:50.077Z,101031.31
2023-03-29T01:13:50.836Z,101033.84999999999
2023-03-29T01:18:45.964Z,101036.1
2023-03-29T01:23:57.320Z,101031.48
2023-03-29T01:28:51.304Z,101031.39
2023-03-29T01:33:50.388Z,101029.11
2023-03-29T01:38:49.673Z,101035.20999999999
2023-03-29T01:43:53.378Z,101029.40999999999
2023-03-29T01:48:50.142Z,101034.03
2023-03-29T01:53:50.150Z,101033.01
2023-03-29T01:58:51.601Z,101035.35
2023-03-29T01:59:21.985Z,101032.19
2023-03-29T11:28:20.535Z,100962.48000000001
2023-03-29T11:30:16.266Z,100962.48000000001
2023-03-29T11:35:26.213Z,100962.03
2023-03-29T11:39:28.471Z,100959.69
2023-03-29T11:39:47.268Z,100959.69
2023-03-29T11:40:19.391Z,100959.69
2023-03-29T11:45:14.132Z,100965.4
2023-03-29T11:50:16.155Z,100959.16
2023-03-29T11:55:13.376Z,100954.90999999999
2023-03-29T11:59:04.302Z,100947.11
2023-03-29T12:00:14.740Z,100947.11
2023-03-29T12:05:13.732Z,100944.75
2023-03-29T12:09:33.100Z,100939.79000000001
2023-03-29T12:10:15.692Z,100939.79000000001
2023-03-29T12:15:16.290Z,100934.22
2023-03-29T12:20:15.756Z,100933.69
2023-03-29T12:25:17.357Z,100931.88
2023-03-29T14:11:22.159Z,100865.23999999999
2023-03-29T14:15:19.817Z,100865.23999999999
2023-03-29T14:20:08.767Z,100864.04
2023-03-29T14:20:52.724Z,100864.04
2023-03-29T14:25:14.687Z,100861.27
2023-03-29T14:30:19.850Z,100856.20999999999
2023-03-29T14:35:08.769Z,100852.33
2023-03-29T14:35:12.319Z,100852.33
2023-03-29T14:40:15.928Z,100849.83
2023-03-29T14:45:12.602Z,100848.64
2023-03-29T14:50:17.025Z,100850.42
2023-03-29T14:55:10.033Z,100842.19
2023-03-29T15:00:18.391Z,100843.97
2023-03-29T15:05:25.034Z,100843.4
2023-03-29T15:10:16.286Z,100843.05
2023-03-29T15:10:21.731Z,100843.05
